Fairfax, Virginia
Current Conditions -  °F | °C
As of 8:52 PM on Friday 24 Oct 2014 (Local Time) from KIAD Reporting Station
Broken Clouds Broken Clouds  
Wind Chill: 56°   Ceiling: 25000
Heat Index: 56°   Visibility: 10mi
Dew Point: 35°   Wind: 8mph
Humidity: 45%   Direction: 330°NNW
Pressure: 29.95"   Gusts: NA
Location:  38.84°N, 77.31°W
Report Text: KIAD 250052Z 33007KT 10SM SCT200 BKN250 13/02 A2995 RMK AO2 SLP141 T01330017
Loading
Personal Weather Stations






























Interactive Weather Map
Tropical Storm Tracking
New forecast layout! Learn more

10-Day Weather Forecast

Advertisements
Track Severe Weather on mobile